Time;durP1;ratioP1;P1;durP2;ratioP2;P2;SDS_P1;SDS_P2;PMS_P1;PMS_P2;Temp;Humidity;BMP_temperature;BMP_pressure;BME280_temperature;BME280_humidity;BME280_pressure;Samples;Min_cycle;Max_cycle;Signal;HPM_P1;HPM_P2
2021/12/12 00:00:51;;;;;;;24.50;11.20;;;;;;;2.16;68.04;99795.25;4364727;32;32440;-94
2021/12/12 00:03:34;;;;;;;26.80;12.27;;;;;;;2.49;67.14;99798.28;4363262;32;33519;-94
2021/12/12 00:06:07;;;;;;;23.00;11.57;;;;;;;2.31;66.91;99804.53;4361993;32;33668;-94
2021/12/12 00:08:37;;;;;;;26.65;12.35;;;;;;;2.20;67.34;99801.19;4364721;32;34525;-95
2021/12/12 00:11:07;;;;;;;23.23;12.20;;;;;;;2.59;66.35;99810.75;4361233;32;32910;-95
2021/12/12 00:13:46;;;;;;;21.30;11.60;;;;;;;2.67;65.87;99806.38;4364733;32;31691;-94
2021/12/12 00:16:14;;;;;;;24.85;12.05;;;;;;;2.77;65.56;99809.84;4362127;32;35683;-94
2021/12/12 00:18:43;;;;;;;26.85;12.37;;;;;;;2.13;67.21;99810.94;4358879;32;34339;-94
2021/12/12 00:21:13;;;;;;;25.73;12.60;;;;;;;1.97;68.43;99819.72;4352448;32;32127;-94
2021/12/12 00:23:42;;;;;;;22.97;12.27;;;;;;;1.96;68.10;99818.00;4364361;32;32533;-95
2021/12/12 00:26:14;;;;;;;27.95;12.68;;;;;;;2.04;67.82;99826.22;4352261;32;33617;-94
2021/12/12 00:28:42;;;;;;;23.25;11.98;;;;;;;2.32;67.05;99824.34;4351687;32;32694;-95
2021/12/12 00:31:14;;;;;;;26.75;12.02;;;;;;;1.81;68.20;99824.94;4363972;32;33713;-95
2021/12/12 00:33:47;;;;;;;25.75;11.85;;;;;;;2.08;67.25;99827.63;4358672;32;34092;-94
2021/12/12 00:36:18;;;;;;;26.30;12.20;;;;;;;1.58;69.33;99817.22;4352027;32;33959;-94
2021/12/12 00:38:51;;;;;;;28.00;13.25;;;;;;;1.88;68.43;99826.06;4347169;32;32977;-94
2021/12/12 00:41:33;;;;;;;24.90;12.50;;;;;;;1.88;68.44;99818.78;4353460;32;32978;-95
2021/12/12 00:44:03;;;;;;;27.77;13.00;;;;;;;1.76;69.10;99819.13;4362109;32;31760;-94
2021/12/12 00:46:32;;;;;;;21.83;11.70;;;;;;;2.01;67.57;99814.84;4353887;32;34032;-94
2021/12/12 00:49:03;;;;;;;25.97;12.93;;;;;;;1.57;69.02;99812.81;4349594;32;34793;-95
2021/12/12 00:51:34;;;;;;;26.30;12.97;;;;;;;2.20;67.20;99818.28;4353772;32;33016;-93
2021/12/12 00:54:06;;;;;;;23.93;12.50;;;;;;;2.16;67.44;99808.78;4362113;32;33823;-95
2021/12/12 00:56:34;;;;;;;27.03;13.03;;;;;;;1.97;67.75;99815.16;4354018;32;33098;-95
2021/12/12 00:59:05;;;;;;;28.60;12.30;;;;;;;1.69;68.81;99820.72;4362585;32;34716;-95
2021/12/12 01:01:42;;;;;;;27.50;13.67;;;;;;;1.83;67.75;99828.34;4365672;32;34067;-95
2021/12/12 01:04:30;;;;;;;25.97;12.80;;;;;;;1.29;69.78;99828.16;4351884;32;31957;-93
2021/12/12 01:07:00;;;;;;;28.23;13.80;;;;;;;1.13;70.44;99833.31;4374314;32;33517;-94
2021/12/12 01:09:32;;;;;;;31.07;14.57;;;;;;;1.92;68.09;99832.87;4365367;32;34402;-95
2021/12/12 01:12:04;;;;;;;24.53;13.67;;;;;;;1.54;69.16;99842.84;4361963;32;33725;-95
2021/12/12 01:14:35;;;;;;;27.03;13.03;;;;;;;1.60;69.43;99839.56;4378120;32;32787;-95
2021/12/12 01:17:15;;;;;;;29.50;14.50;;;;;;;1.55;69.03;99839.16;4350243;32;33308;-94
2021/12/12 01:19:56;;;;;;;26.80;13.17;;;;;;;1.48;69.54;99840.72;4365811;32;32969;-94
2021/12/12 01:22:35;;;;;;;29.70;14.48;;;;;;;1.11;70.35;99843.41;4353718;32;34156;-94
2021/12/12 01:25:26;;;;;;;32.67;14.10;;;;;;;1.30;70.08;99843.34;4362775;32;34638;-94
2021/12/12 01:27:55;;;;;;;27.20;12.93;;;;;;;1.37;70.02;99840.06;4378200;32;32641;-94
2021/12/12 01:30:24;;;;;;;31.50;14.07;;;;;;;1.36;69.20;99835.66;4365777;32;34317;-94
2021/12/12 01:32:53;;;;;;;29.10;14.33;;;;;;;0.91;71.02;99834.47;4361096;32;33355;-94
2021/12/12 01:35:21;;;;;;;32.10;15.37;;;;;;;1.14;70.30;99848.53;4353998;32;33286;-94
2021/12/12 01:40:43;;;;;;;30.53;15.00;;;;;;;1.53;68.75;99843.84;4369016;32;32830;-94
2021/12/12 01:43:24;;;;;;;29.43;14.10;;;;;;;1.41;69.71;99836.91;4365913;32;34114;-94
2021/12/12 01:46:07;;;;;;;29.90;14.77;;;;;;;1.51;69.01;99843.16;4367916;32;32873;-92
2021/12/12 01:48:44;;;;;;;36.07;15.97;;;;;;;1.04;70.57;99844.12;4380763;32;35312;-90
2021/12/12 01:51:14;;;;;;;30.93;15.47;;;;;;;1.02;70.67;99844.28;4390074;32;34605;-93
2021/12/12 01:53:45;;;;;;;31.40;15.00;;;;;;;1.02;70.81;99844.28;4372489;32;33001;-94
2021/12/12 01:56:25;;;;;;;36.67;17.70;;;;;;;0.83;71.09;99858.66;4366120;32;31246;-94
2021/12/12 01:58:58;;;;;;;32.70;15.70;;;;;;;1.19;70.50;99850.78;4373130;32;32829;-93
2021/12/12 02:01:40;;;;;;;31.07;15.20;;;;;;;1.37;69.32;99854.44;4358834;32;32636;-92
2021/12/12 02:04:12;;;;;;;31.40;15.13;;;;;;;1.01;70.42;99855.22;4378330;32;34030;-92
2021/12/12 02:06:43;;;;;;;29.90;15.30;;;;;;;1.27;69.65;99859.03;4367177;32;34556;-93
2021/12/12 02:09:12;;;;;;;31.50;15.60;;;;;;;0.81;70.95;99862.50;4378062;32;33869;-93
2021/12/12 02:11:42;;;;;;;30.40;14.40;;;;;;;1.01;70.44;99852.53;4365760;32;34223;-92
2021/12/12 02:14:13;;;;;;;30.90;15.17;;;;;;;0.84;70.98;99856.78;4365601;32;33441;-93
2021/12/12 02:16:45;;;;;;;28.87;13.77;;;;;;;1.10;70.47;99855.22;4377875;32;31824;-93
2021/12/12 02:19:14;;;;;;;33.47;16.50;;;;;;;1.01;70.51;99852.53;4365357;32;33287;-93
2021/12/12 02:22:01;;;;;;;27.40;13.33;;;;;;;1.18;69.76;99847.25;4361384;32;33891;-93
2021/12/12 02:35:49;;;;;;;32.58;14.85;;;;;;;1.49;68.96;99842.44;4367743;32;33171;-94
2021/12/12 02:38:27;;;;;;;32.83;15.70;;;;;;;1.80;67.69;99828.66;4366540;32;34342;-94
2021/12/12 02:41:04;;;;;;;30.43;15.07;;;;;;;1.58;68.23;99838.84;4349010;32;33590;-94
2021/12/12 02:43:38;;;;;;;29.83;14.43;;;;;;;1.86;67.37;99833.47;4353251;32;33797;-94
2021/12/12 02:46:07;;;;;;;28.27;14.90;;;;;;;1.38;68.18;99845.31;4351005;32;33581;-93
2021/12/12 02:48:41;;;;;;;31.87;14.80;;;;;;;1.36;68.84;99843.75;4353267;32;33328;-93
2021/12/12 02:51:12;;;;;;;30.23;15.13;;;;;;;1.05;69.75;99844.00;4362904;32;32149;-94
2021/12/12 02:53:53;;;;;;;24.00;12.80;;;;;;;1.57;68.40;99847.09;4364956;32;33032;-94
2021/12/12 02:56:25;;;;;;;30.43;15.00;;;;;;;1.52;67.82;99849.41;4365710;32;33615;-94
2021/12/12 02:58:54;;;;;;;30.83;14.90;;;;;;;1.50;68.27;99854.09;4360940;32;34784;-95
2021/12/12 03:01:55;;;;;;;29.45;14.63;;;;;;;1.59;67.88;99858.63;4352904;32;33444;-94
2021/12/12 03:04:25;;;;;;;33.05;15.70;;;;;;;2.18;65.98;99850.09;4362754;32;33693;-92
2021/12/12 03:06:55;;;;;;;29.87;14.90;;;;;;;1.58;67.20;99862.34;4360776;32;33934;-94
2021/12/12 03:09:30;;;;;;;31.63;14.47;;;;;;;1.86;66.70;99861.38;4365394;32;34551;-94
2021/12/12 03:12:04;;;;;;;26.43;13.83;;;;;;;1.51;67.70;99856.66;4361256;32;32298;-94
2021/12/12 03:14:34;;;;;;;26.73;14.07;;;;;;;1.77;66.70;99845.19;4364972;32;34357;-93
2021/12/12 03:17:09;;;;;;;30.30;15.67;;;;;;;1.14;68.91;99853.06;4349138;32;33215;-94
2021/12/12 03:19:39;;;;;;;26.93;13.67;;;;;;;1.27;68.16;99859.03;4365097;32;34111;-93
2021/12/12 03:22:09;;;;;;;28.17;13.47;;;;;;;1.62;67.41;99851.06;4349763;32;33107;-93
2021/12/12 03:24:38;;;;;;;31.73;15.07;;;;;;;1.72;66.75;99845.62;4365041;32;33759;-94
2021/12/12 03:27:07;;;;;;;31.07;14.90;;;;;;;1.82;66.46;99859.13;4352771;32;33114;-93
2021/12/12 03:29:37;;;;;;;27.83;13.47;;;;;;;1.80;66.86;99855.72;4352800;32;31605;-94
2021/12/12 03:32:11;;;;;;;27.13;13.37;;;;;;;1.73;66.37;99860.88;4361846;32;31991;-94
2021/12/12 03:34:44;;;;;;;27.03;13.20;;;;;;;1.53;66.86;99870.91;4364912;32;33820;-94
2021/12/12 03:37:16;;;;;;;27.97;12.97;;;;;;;1.64;66.83;99869.88;4367461;32;34656;-93
2021/12/12 03:39:46;;;;;;;27.77;14.93;;;;;;;1.36;66.90;99876.19;4351943;32;32627;-94
2021/12/12 03:42:18;;;;;;;28.23;13.60;;;;;;;1.70;66.48;99871.97;4366716;32;33924;-94
2021/12/12 03:44:47;;;;;;;29.07;14.43;;;;;;;1.67;66.55;99874.13;4352540;32;33531;-94
2021/12/12 03:47:24;;;;;;;29.10;12.83;;;;;;;1.45;66.95;99889.69;4362651;32;33814;-94
2021/12/12 03:49:53;;;;;;;25.33;13.77;;;;;;;1.33;67.06;99886.31;4360165;32;32541;-93
2021/12/12 03:52:22;;;;;;;27.33;13.77;;;;;;;1.50;66.47;99891.97;4353201;32;33339;-94
2021/12/12 03:54:53;;;;;;;28.60;13.93;;;;;;;1.35;66.87;99882.59;4366037;32;32778;-93
2021/12/12 03:57:21;;;;;;;28.23;13.33;;;;;;;1.79;65.85;99897.31;4370857;32;34005;-93
2021/12/12 03:59:49;;;;;;;28.60;13.60;;;;;;;1.54;66.31;99896.09;4365928;32;33827;-94
2021/12/12 04:02:17;;;;;;;29.50;14.13;;;;;;;1.11;66.99;99899.31;4370162;32;33613;-88
2021/12/12 04:04:48;;;;;;;27.57;13.90;;;;;;;1.28;67.40;99904.00;4361538;32;32799;-91
2021/12/12 04:07:20;;;;;;;28.80;15.00;;;;;;;1.72;65.67;99907.84;4352356;32;33271;-88
2021/12/12 04:09:49;;;;;;;30.63;14.87;;;;;;;1.40;65.61;99924.44;4347346;32;31791;-91
2021/12/12 04:12:18;;;;;;;30.37;15.70;;;;;;;1.64;65.50;99921.25;4352211;32;32304;-91
2021/12/12 04:14:48;;;;;;;30.37;13.97;;;;;;;1.87;64.91;99927.19;4358622;32;34585;-91
2021/12/12 04:17:18;;;;;;;31.97;16.13;;;;;;;2.04;64.02;99929.09;4352325;32;32147;-91
2021/12/12 04:19:49;;;;;;;30.25;14.80;;;;;;;1.66;64.87;99930.09;4359453;32;31627;-91
2021/12/12 04:22:17;;;;;;;32.57;15.23;;;;;;;1.77;64.93;99934.47;4364905;32;34230;-90
2021/12/12 04:24:47;;;;;;;33.23;14.83;;;;;;;1.63;65.33;99928.53;4360733;32;33771;-90
2021/12/12 04:27:16;;;;;;;29.07;14.87;;;;;;;1.69;64.66;99935.19;4379280;32;33874;-90
2021/12/12 04:29:46;;;;;;;31.57;15.90;;;;;;;1.98;63.81;99943.22;4372194;32;33424;-90
2021/12/12 04:32:26;;;;;;;30.87;15.00;;;;;;;1.43;65.21;99955.75;4375477;32;33259;-91
2021/12/12 04:35:01;;;;;;;32.53;15.07;;;;;;;0.97;66.40;99951.94;4370590;32;35204;-90
2021/12/12 04:37:29;;;;;;;32.03;15.83;;;;;;;1.15;66.16;99936.72;4369162;32;34058;-91
2021/12/12 04:39:58;;;;;;;37.53;17.63;;;;;;;1.03;67.16;99943.25;4348148;32;31556;-90
2021/12/12 04:42:35;;;;;;;36.40;16.62;;;;;;;1.31;65.98;99949.63;4364009;32;33397;-91
2021/12/12 04:45:12;;;;;;;;;;;;;;;1.79;64.34;99954.97;4373190;32;35081;-91
2021/12/12 04:51:21;;;;;;;34.67;16.83;;;;;;;1.35;65.30;99961.00;4361793;32;33447;-90
2021/12/12 04:53:52;;;;;;;36.50;16.33;;;;;;;1.16;65.92;99957.34;4347949;32;33657;-90
2021/12/12 04:56:27;;;;;;;37.73;17.17;;;;;;;0.88;66.91;99950.06;4351585;32;32921;-91
2021/12/12 04:58:58;;;;;;;34.50;16.70;;;;;;;0.91;66.84;99956.06;4347349;32;33098;-90
2021/12/12 05:01:38;;;;;;;35.70;17.23;;;;;;;1.18;66.08;99951.81;4363761;32;32943;-90
2021/12/12 05:04:12;;;;;;;38.40;18.40;;;;;;;1.02;66.41;99951.50;4363714;32;32008;-90
2021/12/12 05:06:46;;;;;;;34.63;17.03;;;;;;;1.24;65.93;99953.94;4357864;32;34373;-90
2021/12/12 05:09:18;;;;;;;34.70;16.67;;;;;;;1.13;65.96;99948.66;4363643;32;32407;-91
2021/12/12 05:11:48;;;;;;;36.20;17.10;;;;;;;1.40;65.31;99937.97;4346133;32;31684;-90
2021/12/12 05:14:23;;;;;;;37.27;17.77;;;;;;;1.33;65.27;99947.63;4363469;32;34016;-91
2021/12/12 05:17:07;;;;;;;38.58;17.70;;;;;;;1.65;64.39;99950.88;4358921;32;34348;-91
2021/12/12 05:19:35;;;;;;;37.57;17.13;;;;;;;1.29;65.33;99954.38;4351339;32;32360;-92
2021/12/12 05:22:10;;;;;;;33.13;16.20;;;;;;;1.47;65.00;99955.31;4372502;32;32859;-91
2021/12/12 05:24:39;;;;;;;36.23;17.40;;;;;;;1.54;64.94;99964.56;4363443;32;32973;-92
2021/12/12 05:27:13;;;;;;;32.83;16.37;;;;;;;1.32;65.54;99964.84;4353300;32;32946;-91
2021/12/12 05:29:46;;;;;;;36.03;16.27;;;;;;;1.71;64.32;99952.16;4365698;32;32493;-91
2021/12/12 05:32:14;;;;;;;36.23;17.03;;;;;;;1.81;63.92;99950.28;4365956;32;33109;-91
2021/12/12 05:34:48;;;;;;;34.95;16.92;;;;;;;1.79;63.70;99951.41;4360358;32;33452;-91
2021/12/12 05:37:18;;;;;;;33.97;16.83;;;;;;;2.07;62.95;99961.28;4365579;32;33643;-91
2021/12/12 05:39:46;;;;;;;36.97;15.57;;;;;;;2.09;62.66;99958.41;4348229;32;31920;-91
2021/12/12 05:42:15;;;;;;;33.00;15.73;;;;;;;2.13;62.74;99959.81;4353487;32;32029;-91
2021/12/12 05:44:43;;;;;;;31.12;15.85;;;;;;;1.88;63.14;99955.94;4360187;32;32827;-91
2021/12/12 05:47:12;;;;;;;33.95;15.90;;;;;;;2.09;62.54;99964.69;4353332;32;33582;-91
2021/12/12 05:49:41;;;;;;;36.42;16.10;;;;;;;1.97;62.73;99957.75;4353151;32;33194;-91
2021/12/12 05:52:14;;;;;;;30.83;15.70;;;;;;;2.10;62.84;99966.38;4365496;32;31775;-91
2021/12/12 05:54:45;;;;;;;33.95;15.07;;;;;;;1.94;63.02;99953.50;4365640;32;32274;-91
2021/12/12 05:57:16;;;;;;;32.47;15.32;;;;;;;2.19;62.06;99954.66;4366045;32;35312;-88
2021/12/12 05:59:44;;;;;;;30.17;15.07;;;;;;;2.16;62.34;99959.53;4360808;32;34765;-88
2021/12/12 06:02:12;;;;;;;31.42;14.75;;;;;;;2.08;62.55;99960.28;4365760;32;33286;-88
2021/12/12 06:04:40;;;;;;;26.57;13.80;;;;;;;2.07;62.39;99966.69;4347461;32;33985;-88
2021/12/12 06:07:13;;;;;;;31.23;13.23;;;;;;;2.11;62.41;99973.50;4365711;32;35116;-88
2021/12/12 06:09:41;;;;;;;26.25;13.50;;;;;;;1.99;62.39;99964.72;4365544;32;34803;-88
2021/12/12 06:12:09;;;;;;;27.87;14.15;;;;;;;2.37;61.57;99965.56;4365977;32;34183;-89
2021/12/12 06:14:38;;;;;;;30.62;13.68;;;;;;;2.02;62.00;99963.56;4378239;32;35713;-88
2021/12/12 06:17:08;;;;;;;30.12;12.77;;;;;;;2.08;62.14;99979.22;4365672;32;34500;-88
2021/12/12 06:19:36;;;;;;;29.45;13.38;;;;;;;2.19;61.49;99976.34;4365589;32;32596;-87
2021/12/12 06:22:04;;;;;;;26.65;12.05;;;;;;;1.90;62.02;99989.97;4365516;32;32999;-89
2021/12/12 06:24:34;;;;;;;24.80;13.00;;;;;;;2.08;61.79;99990.03;4365629;32;32524;-87
2021/12/12 06:27:12;;;;;;;30.97;14.77;;;;;;;2.18;61.57;99999.00;4361974;32;34323;-88
2021/12/12 06:29:42;;;;;;;22.35;12.45;;;;;;;2.17;61.78;100005.41;4365693;32;33449;-88
2021/12/12 06:32:10;;;;;;;25.75;13.02;;;;;;;2.38;61.06;99996.22;4365883;32;34570;-89
2021/12/12 06:34:38;;;;;;;24.48;12.75;;;;;;;2.09;61.26;99997.16;4366086;32;33358;-87
2021/12/12 06:37:06;;;;;;;23.30;11.97;;;;;;;1.81;62.38;99998.12;4364736;32;33670;-87
2021/12/12 06:39:36;;;;;;;21.87;11.20;;;;;;;1.79;62.77;100000.13;4365723;32;32455;-88
2021/12/12 06:42:05;;;;;;;26.53;12.20;;;;;;;1.48;63.32;100004.84;4361857;32;33538;-88
2021/12/12 06:44:37;;;;;;;29.10;13.97;;;;;;;1.70;63.23;100009.94;4365361;32;32159;-87
2021/12/12 06:47:09;;;;;;;23.23;12.77;;;;;;;1.60;63.11;100007.25;4361961;32;34571;-88
2021/12/12 06:49:37;;;;;;;20.87;10.97;;;;;;;1.73;63.06;100009.66;4364982;32;33765;-86
2021/12/12 06:52:08;;;;;;;23.40;11.63;;;;;;;1.22;64.09;100007.28;4362019;32;31855;-87
2021/12/12 06:54:37;;;;;;;20.33;10.67;;;;;;;1.43;64.21;99999.88;4377583;32;34014;-86
2021/12/12 06:57:08;;;;;;;33.40;15.30;;;;;;;1.78;63.14;99995.72;4361647;32;34856;-87
2021/12/12 06:59:38;;;;;;;22.03;11.20;;;;;;;1.43;63.81;100015.22;4365096;32;33852;-87
2021/12/12 07:02:07;;;;;;;22.07;10.13;;;;;;;1.50;64.67;100005.56;4362072;32;33339;-85
2021/12/12 07:04:38;;;;;;;20.77;10.13;;;;;;;1.64;63.14;100005.97;4352783;32;32616;-88
2021/12/12 07:07:08;;;;;;;19.97;10.30;;;;;;;1.48;63.67;100011.09;4362716;32;35314;-88
2021/12/12 07:09:39;;;;;;;18.90;9.70;;;;;;;1.83;62.71;99998.84;4364904;32;33182;-87
2021/12/12 07:12:13;;;;;;;23.02;9.95;;;;;;;2.25;61.19;100005.53;4374649;32;33941;-88
2021/12/12 07:14:42;;;;;;;19.27;9.23;;;;;;;1.83;62.13;100007.81;4377285;32;34508;-88
2021/12/12 07:17:11;;;;;;;19.03;9.43;;;;;;;1.88;62.28;99999.25;4364943;32;34522;-89
2021/12/12 07:19:40;;;;;;;17.45;9.60;;;;;;;1.99;62.01;100001.75;4365292;32;32472;-88
2021/12/12 07:22:11;;;;;;;19.20;9.83;;;;;;;1.94;61.52;100004.06;4364915;32;34414;-86
2021/12/12 07:24:39;;;;;;;20.30;8.73;;;;;;;2.13;60.81;99997.72;4377333;32;33446;-87
2021/12/12 07:27:07;;;;;;;22.47;10.17;;;;;;;1.52;62.70;100001.72;4365185;32;32995;-87
2021/12/12 07:29:37;;;;;;;20.23;9.53;;;;;;;1.74;62.48;100005.97;4364836;32;34615;-86
2021/12/12 07:32:05;;;;;;;18.58;8.73;;;;;;;1.68;62.38;99998.41;4361860;32;33308;-85
2021/12/12 07:34:36;;;;;;;21.57;8.93;;;;;;;1.71;62.27;100000.84;4364625;32;33188;-86
2021/12/12 07:37:12;;;;;;;21.43;11.00;;;;;;;1.17;63.83;100013.13;4337176;32;33428;-89
2021/12/12 07:39:45;;;;;;;17.47;9.37;;;;;;;1.58;63.15;99993.03;4364854;32;32240;-87
2021/12/12 07:42:14;;;;;;;17.77;9.33;;;;;;;1.86;62.12;99991.28;4365135;32;34022;-88
2021/12/12 07:44:45;;;;;;;27.63;12.70;;;;;;;1.97;61.69;100003.75;4359829;32;32083;-87
2021/12/12 07:47:17;;;;;;;20.50;9.30;;;;;;;1.73;62.59;100006.97;4353280;32;33952;-87
2021/12/12 07:49:48;;;;;;;18.37;9.03;;;;;;;1.59;62.35;100005.56;4371078;32;34274;-87
2021/12/12 07:52:21;;;;;;;17.17;8.67;;;;;;;1.76;62.09;100009.38;4365244;32;33140;-87
2021/12/12 07:54:50;;;;;;;18.93;9.07;;;;;;;1.68;62.34;100013.81;4360745;32;33906;-87
2021/12/12 07:57:19;;;;;;;19.03;8.43;;;;;;;1.82;61.38;100013.34;4376991;32;33924;-86
2021/12/12 07:59:48;;;;;;;18.37;8.03;;;;;;;1.54;62.50;100026.75;4340945;32;33706;-87
2021/12/12 08:02:17;;;;;;;17.87;9.13;;;;;;;1.70;62.22;100006.41;4355978;32;31764;-86
2021/12/12 08:04:45;;;;;;;19.20;9.53;;;;;;;2.08;61.37;100009.00;4363244;32;33751;-87
2021/12/12 08:07:18;;;;;;;17.63;8.87;;;;;;;1.71;61.82;100003.53;4358975;32;33017;-84
2021/12/12 08:09:46;;;;;;;17.62;8.05;;;;;;;2.02;60.96;100011.44;4370778;32;32506;-86
2021/12/12 08:12:19;;;;;;;21.50;11.77;;;;;;;1.75;62.22;100012.22;4369203;32;32785;-87
2021/12/12 08:14:49;;;;;;;14.63;8.10;;;;;;;2.09;61.36;100012.56;4372859;32;34701;-85
2021/12/12 08:17:20;;;;;;;18.10;8.67;;;;;;;2.08;60.40;100022.53;4374517;32;34199;-87
2021/12/12 08:19:49;;;;;;;34.47;17.17;;;;;;;2.06;61.30;100020.97;4373877;32;33808;-87
2021/12/12 08:22:17;;;;;;;21.63;9.73;;;;;;;2.50;60.84;100022.97;4386870;32;31942;-86
2021/12/12 08:24:47;;;;;;;17.33;8.40;;;;;;;2.53;59.31;100030.78;4366912;32;33191;-88
2021/12/12 08:27:17;;;;;;;25.03;11.57;;;;;;;2.28;60.72;100024.19;4378719;32;33603;-87
2021/12/12 08:29:45;;;;;;;22.35;8.57;;;;;;;2.68;62.10;100031.13;4370769;32;32821;-86
2021/12/12 08:32:14;;;;;;;17.42;8.38;;;;;;;2.36;59.87;100034.28;4381787;32;34025;-86
2021/12/12 08:35:03;;;;;;;21.57;11.23;;;;;;;2.47;59.77;100046.78;4369684;32;32289;-87
2021/12/12 08:37:36;;;;;;;16.23;8.77;;;;;;;2.68;61.35;100036.53;4370342;32;32989;-86
2021/12/12 08:40:09;;;;;;;19.07;7.40;;;;;;;2.84;59.22;100041.31;4362342;32;32580;-86
2021/12/12 08:42:37;;;;;;;30.60;13.03;;;;;;;1.98;60.86;100027.13;4371706;32;34006;-87
2021/12/12 08:45:08;;;;;;;20.73;9.27;;;;;;;2.18;61.02;100038.75;4373798;32;32265;-86
2021/12/12 08:47:37;;;;;;;16.83;8.37;;;;;;;2.86;59.17;100037.44;4375430;32;33900;-86
2021/12/12 08:50:12;;;;;;;20.87;8.00;;;;;;;2.77;59.08;100023.94;4381830;32;33933;-85
2021/12/12 08:52:44;;;;;;;17.95;9.68;;;;;;;2.54;59.13;100023.53;4375690;32;33923;-85
2021/12/12 08:55:19;;;;;;;17.70;8.25;;;;;;;2.81;59.06;100031.62;4369696;32;33051;-85
2021/12/12 08:57:59;;;;;;;36.47;17.20;;;;;;;3.13;57.96;100024.88;4357888;32;33786;-87
2021/12/12 09:00:39;;;;;;;17.67;8.10;;;;;;;3.08;59.29;100035.34;4364789;32;34446;-84
2021/12/12 09:03:21;;;;;;;17.47;8.77;;;;;;;2.47;59.37;100028.69;4372611;32;33485;-85
2021/12/12 09:05:50;;;;;;;23.03;12.13;;;;;;;2.42;59.66;100030.97;4382847;32;31899;-86
2021/12/12 09:08:44;;;;;;;15.67;7.80;;;;;;;2.51;59.47;100034.66;4384408;32;34255;-86
2021/12/12 09:11:26;;;;;;;14.93;8.03;;;;;;;3.00;58.46;100033.37;4378790;32;33630;-86
2021/12/12 09:14:00;;;;;;;18.67;8.57;;;;;;;3.04;58.45;100036.63;4368375;32;33017;-85
2021/12/12 09:16:37;;;;;;;14.23;7.00;;;;;;;2.79;58.54;100027.37;4390146;32;33305;-86
2021/12/12 09:19:15;;;;;;;16.25;7.70;;;;;;;2.85;58.16;100024.06;4390191;32;35309;-86
2021/12/12 09:21:50;;;;;;;19.67;10.68;;;;;;;2.62;58.94;100020.88;4393223;32;34608;-86
2021/12/12 09:24:44;;;;;;;55.38;26.02;;;;;;;2.64;59.46;100025.16;4381033;32;31913;-86
2021/12/12 09:27:25;;;;;;;18.62;9.52;;;;;;;2.84;59.45;100030.47;4378899;32;32336;-86
2021/12/12 09:29:58;;;;;;;17.98;9.48;;;;;;;2.96;58.87;100015.72;4388799;32;34550;-86
2021/12/12 09:32:48;;;;;;;21.37;7.50;;;;;;;3.08;58.76;100025.34;4381025;32;34008;-86
2021/12/12 09:35:33;;;;;;;17.35;8.13;;;;;;;3.35;58.27;100031.69;4391331;32;33202;-86
2021/12/12 09:38:09;;;;;;;15.55;8.13;;;;;;;3.57;59.06;100015.81;4377354;32;33379;-86
2021/12/12 09:40:47;;;;;;;28.65;13.07;;;;;;;3.59;57.17;100013.78;4393166;32;34267;-87
2021/12/12 09:43:29;;;;;;;17.02;8.20;;;;;;;3.29;58.01;100003.31;4393055;32;34122;-86
2021/12/12 09:46:20;;;;;;;15.30;8.80;;;;;;;3.15;59.39;100012.03;4377167;32;32393;-86
2021/12/12 09:52:18;;;;;;;13.70;7.20;;;;;;;3.06;58.48;100011.09;4394645;32;35337;-86
2021/12/12 09:55:04;;;;;;;14.43;7.05;;;;;;;2.98;59.38;100003.72;4388947;32;33819;-86
2021/12/12 09:57:34;;;;;;;13.93;7.10;;;;;;;3.28;58.06;100007.91;4393978;32;33675;-86
2021/12/12 10:00:18;;;;;;;12.48;6.65;;;;;;;2.89;58.97;100034.44;4389575;32;33922;-86
2021/12/12 10:03:07;;;;;;;13.45;6.87;;;;;;;3.11;59.02;100018.75;4392974;32;34345;-85
2021/12/12 10:06:00;;;;;;;12.20;6.82;;;;;;;2.85;59.18;100026.75;4380010;32;32509;-86
2021/12/12 10:08:55;;;;;;;13.13;6.80;;;;;;;3.22;58.20;100032.09;4392528;32;34157;-86
2021/12/12 10:11:35;;;;;;;15.07;7.10;;;;;;;3.35;58.48;100039.84;4379039;32;32088;-87
2021/12/12 10:14:30;;;;;;;13.02;6.95;;;;;;;3.63;57.80;100017.91;4377172;32;33822;-87
2021/12/12 10:17:13;;;;;;;12.05;6.35;;;;;;;3.86;57.15;100031.84;4392680;32;32398;-86
2021/12/12 10:19:40;;;;;;;13.05;6.65;;;;;;;3.43;58.07;100021.78;4394008;32;33036;-85
2021/12/12 10:22:43;;;;;;;11.82;6.50;;;;;;;3.29;58.29;100031.31;4380569;32;31809;-87
2021/12/12 10:25:17;;;;;;;11.70;6.12;;;;;;;3.47;57.84;100017.75;4405590;32;34643;-87
2021/12/12 10:27:57;;;;;;;14.32;6.32;;;;;;;3.23;58.31;100031.09;4392504;32;34613;-87
2021/12/12 10:30:29;;;;;;;11.45;5.97;;;;;;;3.40;58.33;100027.50;4393270;32;34057;-86
2021/12/12 10:33:15;;;;;;;40.70;18.73;;;;;;;3.46;57.85;100034.19;4376228;32;33881;-86
2021/12/12 10:35:58;;;;;;;15.80;7.15;;;;;;;3.18;58.64;100034.25;4373227;32;33006;-86
2021/12/12 10:38:51;;;;;;;11.60;5.97;;;;;;;3.52;58.05;100034.41;4372279;32;32290;-85
2021/12/12 10:41:35;;;;;;;13.10;6.18;;;;;;;3.92;56.81;100033.87;4368655;32;33175;-85
2021/12/12 10:44:07;;;;;;;14.80;6.80;;;;;;;3.91;56.95;100034.03;4386725;32;33249;-86
2021/12/12 10:46:50;;;;;;;13.70;6.37;;;;;;;4.20;55.79;100020.16;4385728;32;34278;-87
2021/12/12 10:49:37;;;;;;;11.77;6.60;;;;;;;4.37;55.97;100026.56;4381417;32;33088;-85
2021/12/12 10:52:11;;;;;;;18.35;9.68;;;;;;;4.28;55.49;100029.22;4398613;32;33306;-86
2021/12/12 10:54:54;;;;;;;15.50;7.70;;;;;;;4.14;56.12;100024.38;4382588;32;33836;-86
2021/12/12 10:57:31;;;;;;;11.05;5.55;;;;;;;3.92;56.71;100022.16;4389089;32;34417;-86
2021/12/12 11:00:26;;;;;;;10.88;5.90;;;;;;;3.86;57.04;100020.13;4354430;32;33723;-86
2021/12/12 11:03:05;;;;;;;10.77;5.53;;;;;;;4.09;56.47;100018.56;4370410;32;31989;-87
2021/12/12 11:05:39;;;;;;;11.55;5.72;;;;;;;4.02;56.00;100022.94;4383656;32;33832;-86
2021/12/12 11:08:42;;;;;;;25.33;11.30;;;;;;;4.36;55.58;100027.56;4357418;32;33067;-85
2021/12/12 11:11:14;;;;;;;17.10;9.38;;;;;;;4.28;57.96;100023.78;4372872;32;32460;-86
2021/12/12 11:13:50;;;;;;;12.50;6.05;;;;;;;4.10;55.86;100025.69;4389222;32;33378;-88
2021/12/12 11:16:26;;;;;;;10.98;5.80;;;;;;;4.12;56.13;100025.53;4389213;32;34499;-88
2021/12/12 11:19:08;;;;;;;13.35;6.18;;;;;;;4.09;56.10;100017.72;4379370;32;34123;-88
2021/12/12 11:21:49;;;;;;;11.52;5.05;;;;;;;4.20;55.31;100010.16;4383941;32;34565;-86
2021/12/12 11:24:24;;;;;;;12.05;5.37;;;;;;;4.07;55.60;100014.31;4382781;32;33876;-87
2021/12/12 11:27:07;;;;;;;11.25;5.62;;;;;;;4.16;55.91;100006.06;4359291;32;31705;-88
2021/12/12 11:29:41;;;;;;;9.68;5.10;;;;;;;4.10;56.15;100011.28;4384865;32;34364;-86
2021/12/12 11:32:21;;;;;;;10.45;5.05;;;;;;;3.94;56.08;100023.72;4367103;32;34773;-87
2021/12/12 11:34:52;;;;;;;11.75;5.55;;;;;;;3.78;56.62;100025.47;4378582;32;31773;-86
2021/12/12 11:37:55;;;;;;;9.52;5.00;;;;;;;3.97;56.20;100014.41;4372419;32;32349;-86
2021/12/12 11:40:29;;;;;;;10.35;5.45;;;;;;;4.17;56.00;100018.62;4381569;32;35183;-87
2021/12/12 11:42:57;;;;;;;9.95;5.10;;;;;;;4.28;56.19;100004.78;4381095;32;34089;-86
2021/12/12 11:45:38;;;;;;;14.57;7.10;;;;;;;4.08;56.02;100011.44;4393731;32;33914;-86
2021/12/12 11:48:12;;;;;;;14.40;7.20;;;;;;;4.22;56.04;100002.69;4381302;32;34915;-86
2021/12/12 11:51:21;;;;;;;11.57;5.50;;;;;;;3.91;55.98;99993.31;4392836;32;118719;-86
2021/12/12 11:53:56;;;;;;;13.18;5.72;;;;;;;3.84;56.61;100014.84;4369724;32;32656;-85
2021/12/12 11:56:34;;;;;;;24.42;12.57;;;;;;;3.84;56.70;100009.41;4379363;32;31875;-85
2021/12/12 11:59:04;;;;;;;14.10;8.07;;;;;;;3.88;56.97;100004.53;4379431;32;32213;-85
2021/12/12 12:01:54;;;;;;;12.30;6.07;;;;;;;4.11;55.70;100013.81;4379441;32;33037;-88
2021/12/12 12:04:43;;;;;;;9.93;5.55;;;;;;;3.89;56.77;100012.50;4379520;32;32052;-87
2021/12/12 12:07:30;;;;;;;8.52;5.47;;;;;;;3.84;56.35;100019.41;4389434;32;33247;-85
2021/12/12 12:10:35;;;;;;;9.70;4.93;;;;;;;3.81;56.99;100022.47;4379383;32;33409;-86
2021/12/12 12:13:24;;;;;;;9.38;5.15;;;;;;;4.10;56.00;100023.00;4379784;32;32788;-86
2021/12/12 12:16:03;;;;;;;10.38;5.37;;;;;;;4.49;55.23;100014.41;4379361;32;32563;-86
2021/12/12 12:18:41;;;;;;;10.90;5.75;;;;;;;4.05;56.32;100017.19;4392038;32;33438;-86